sensor_id;sensor_type;location;lat;lon;timestamp;P1;durP1;ratioP1;P2;durP2;ratioP2
62010;SDS011;47967;51.756;10.174;2023-04-26T04:00:48;3.90;;;2.30;;
62010;SDS011;47967;51.756;10.174;2023-04-26T04:04:51;2.13;;;1.70;;
62010;SDS011;47967;51.756;10.174;2023-04-26T04:08:54;8.02;;;2.30;;
62010;SDS011;47967;51.756;10.174;2023-04-26T04:12:57;5.82;;;2.50;;
62010;SDS011;47967;51.756;10.174;2023-04-26T04:17:01;7.88;;;2.08;;
62010;SDS011;47967;51.756;10.174;2023-04-26T04:21:04;6.07;;;2.25;;
62010;SDS011;47967;51.756;10.174;2023-04-26T04:25:08;3.05;;;2.08;;
62010;SDS011;47967;51.756;10.174;2023-04-26T04:29:12;4.95;;;2.55;;
62010;SDS011;47967;51.756;10.174;2023-04-26T04:33:18;6.15;;;2.65;;
62010;SDS011;47967;51.756;10.174;2023-04-26T04:37:21;9.80;;;2.70;;
62010;SDS011;47967;51.756;10.174;2023-04-26T04:41:24;6.60;;;2.80;;
62010;SDS011;47967;51.756;10.174;2023-04-26T04:45:26;7.82;;;3.20;;
62010;SDS011;47967;51.756;10.174;2023-04-26T04:49:32;9.65;;;3.70;;
62010;SDS011;47967;51.756;10.174;2023-04-26T04:53:35;9.32;;;4.03;;
62010;SDS011;47967;51.756;10.174;2023-04-26T05:01:43;4.25;;;2.28;;
62010;SDS011;47967;51.756;10.174;2023-04-26T05:05:49;3.92;;;2.38;;
62010;SDS011;47967;51.756;10.174;2023-04-26T05:09:52;7.95;;;2.67;;
62010;SDS011;47967;51.756;10.174;2023-04-26T05:13:56;10.18;;;2.63;;
62010;SDS011;47967;51.756;10.174;2023-04-26T05:17:59;6.60;;;2.60;;
62010;SDS011;47967;51.756;10.174;2023-04-26T05:30:25;12.93;;;3.00;;
62010;SDS011;47967;51.756;10.174;2023-04-26T05:34:47;4.70;;;2.78;;
62010;SDS011;47967;51.756;10.174;2023-04-26T05:38:51;13.10;;;3.17;;
62010;SDS011;47967;51.756;10.174;2023-04-26T05:42:54;9.65;;;3.08;;
62010;SDS011;47967;51.756;10.174;2023-04-26T05:46:57;6.65;;;2.95;;
62010;SDS011;47967;51.756;10.174;2023-04-26T05:55:06;9.70;;;2.95;;
62010;SDS011;47967;51.756;10.174;2023-04-26T05:59:10;6.53;;;2.92;;
62010;SDS011;47967;51.756;10.174;2023-04-26T06:03:13;8.70;;;3.70;;
62010;SDS011;47967;51.756;10.174;2023-04-26T06:07:17;9.27;;;3.58;;
62010;SDS011;47967;51.756;10.174;2023-04-26T06:11:22;19.85;;;3.50;;
62010;SDS011;47967;51.756;10.174;2023-04-26T06:15:25;6.65;;;3.58;;
62010;SDS011;47967;51.756;10.174;2023-04-26T06:19:28;13.27;;;3.78;;
62010;SDS011;47967;51.756;10.174;2023-04-26T06:23:31;8.93;;;3.77;;
62010;SDS011;47967;51.756;10.174;2023-04-26T06:27:35;13.55;;;3.97;;
62010;SDS011;47967;51.756;10.174;2023-04-26T06:31:39;8.23;;;4.30;;
62010;SDS011;47967;51.756;10.174;2023-04-26T06:35:42;7.80;;;3.55;;
62010;SDS011;47967;51.756;10.174;2023-04-26T06:39:45;9.82;;;3.50;;
62010;SDS011;47967;51.756;10.174;2023-04-26T06:47:54;10.90;;;3.30;;
62010;SDS011;47967;51.756;10.174;2023-04-26T06:51:58;12.93;;;3.45;;
62010;SDS011;47967;51.756;10.174;2023-04-26T06:56:01;9.93;;;3.67;;
62010;SDS011;47967;51.756;10.174;2023-04-26T07:00:06;14.48;;;3.90;;
62010;SDS011;47967;51.756;10.174;2023-04-26T07:04:10;9.93;;;3.50;;
62010;SDS011;47967;51.756;10.174;2023-04-26T07:08:15;12.48;;;3.75;;
62010;SDS011;47967;51.756;10.174;2023-04-26T07:12:17;11.20;;;3.47;;
62010;SDS011;47967;51.756;10.174;2023-04-26T07:16:21;9.70;;;3.50;;
62010;SDS011;47967;51.756;10.174;2023-04-26T07:20:24;10.98;;;3.35;;
62010;SDS011;47967;51.756;10.174;2023-04-26T07:24:27;10.37;;;3.13;;
62010;SDS011;47967;51.756;10.174;2023-04-26T07:28:29;8.27;;;2.65;;
62010;SDS011;47967;51.756;10.174;2023-04-26T07:32:33;9.45;;;3.08;;
62010;SDS011;47967;51.756;10.174;2023-04-26T07:36:36;10.98;;;3.08;;
62010;SDS011;47967;51.756;10.174;2023-04-26T07:40:39;5.10;;;2.40;;
62010;SDS011;47967;51.756;10.174;2023-04-26T07:44:43;9.98;;;2.95;;
62010;SDS011;47967;51.756;10.174;2023-04-26T07:48:47;9.40;;;3.17;;
62010;SDS011;47967;51.756;10.174;2023-04-26T07:52:49;10.82;;;3.10;;
62010;SDS011;47967;51.756;10.174;2023-04-26T07:56:52;5.95;;;2.45;;
62010;SDS011;47967;51.756;10.174;2023-04-26T08:00:55;6.70;;;1.90;;
62010;SDS011;47967;51.756;10.174;2023-04-26T08:04:59;5.97;;;2.28;;
62010;SDS011;47967;51.756;10.174;2023-04-26T08:09:02;8.88;;;2.58;;
62010;SDS011;47967;51.756;10.174;2023-04-26T08:13:05;4.65;;;2.00;;
62010;SDS011;47967;51.756;10.174;2023-04-26T08:17:08;4.90;;;1.87;;
62010;SDS011;47967;51.756;10.174;2023-04-26T08:21:12;5.50;;;2.47;;
62010;SDS011;47967;51.756;10.174;2023-04-26T08:25:15;5.00;;;1.92;;
62010;SDS011;47967;51.756;10.174;2023-04-26T08:29:18;5.93;;;2.07;;
62010;SDS011;47967;51.756;10.174;2023-04-26T08:33:20;5.55;;;2.20;;
62010;SDS011;47967;51.756;10.174;2023-04-26T08:37:24;4.90;;;1.80;;
62010;SDS011;47967;51.756;10.174;2023-04-26T08:41:30;4.93;;;1.85;;
62010;SDS011;47967;51.756;10.174;2023-04-26T08:45:38;4.00;;;1.90;;
62010;SDS011;47967;51.756;10.174;2023-04-26T08:49:45;9.50;;;1.92;;
62010;SDS011;47967;51.756;10.174;2023-04-26T08:53:51;4.05;;;1.48;;
62010;SDS011;47967;51.756;10.174;2023-04-26T08:57:54;3.78;;;1.95;;
62010;SDS011;47967;51.756;10.174;2023-04-26T09:01:57;4.45;;;1.95;;
62010;SDS011;47967;51.756;10.174;2023-04-26T09:06:03;7.18;;;2.15;;
62010;SDS011;47967;51.756;10.174;2023-04-26T09:10:10;6.90;;;2.17;;
62010;SDS011;47967;51.756;10.174;2023-04-26T09:14:14;3.80;;;2.03;;
62010;SDS011;47967;51.756;10.174;2023-04-26T09:18:17;7.22;;;1.92;;
62010;SDS011;47967;51.756;10.174;2023-04-26T09:22:28;7.07;;;1.88;;
62010;SDS011;47967;51.756;10.174;2023-04-26T09:26:35;6.10;;;1.80;;
62010;SDS011;47967;51.756;10.174;2023-04-26T09:30:38;4.90;;;1.63;;
62010;SDS011;47967;51.756;10.174;2023-04-26T09:34:44;8.88;;;2.35;;
62010;SDS011;47967;51.756;10.174;2023-04-26T09:38:47;4.65;;;1.50;;
62010;SDS011;47967;51.756;10.174;2023-04-26T09:43:02;1.20;;;1.10;;
62010;SDS011;47967;51.756;10.174;2023-04-26T09:47:06;5.00;;;1.80;;
62010;SDS011;47967;51.756;10.174;2023-04-26T09:51:10;2.90;;;1.15;;
62010;SDS011;47967;51.756;10.174;2023-04-26T09:55:14;4.17;;;1.83;;
62010;SDS011;47967;51.756;10.174;2023-04-26T09:59:40;5.75;;;2.10;;
62010;SDS011;47967;51.756;10.174;2023-04-26T10:03:44;7.50;;;1.73;;
62010;SDS011;47967;51.756;10.174;2023-04-26T10:07:48;3.47;;;1.90;;
62010;SDS011;47967;51.756;10.174;2023-04-26T10:11:52;6.25;;;1.65;;
62010;SDS011;47967;51.756;10.174;2023-04-26T10:15:56;5.53;;;2.00;;
62010;SDS011;47967;51.756;10.174;2023-04-26T10:19:58;8.68;;;1.80;;
62010;SDS011;47967;51.756;10.174;2023-04-26T10:24:06;6.05;;;1.92;;
62010;SDS011;47967;51.756;10.174;2023-04-26T10:32:13;12.10;;;2.88;;
62010;SDS011;47967;51.756;10.174;2023-04-26T10:36:18;7.40;;;1.80;;
62010;SDS011;47967;51.756;10.174;2023-04-26T10:40:22;6.18;;;1.92;;
62010;SDS011;47967;51.756;10.174;2023-04-26T10:44:38;6.10;;;1.70;;
62010;SDS011;47967;51.756;10.174;2023-04-26T10:48:43;4.00;;;1.70;;
62010;SDS011;47967;51.756;10.174;2023-04-26T10:53:04;4.35;;;1.70;;
62010;SDS011;47967;51.756;10.174;2023-04-26T10:57:06;3.42;;;1.50;;
62010;SDS011;47967;51.756;10.174;2023-04-26T11:01:14;3.40;;;1.70;;
62010;SDS011;47967;51.756;10.174;2023-04-26T11:05:35;3.42;;;1.60;;
62010;SDS011;47967;51.756;10.174;2023-04-26T11:09:39;3.00;;;1.63;;
62010;SDS011;47967;51.756;10.174;2023-04-26T11:13:49;6.18;;;1.85;;
62010;SDS011;47967;51.756;10.174;2023-04-26T11:17:51;2.60;;;1.50;;
62010;SDS011;47967;51.756;10.174;2023-04-26T11:21:55;3.77;;;1.70;;
62010;SDS011;47967;51.756;10.174;2023-04-26T11:25:58;4.20;;;1.70;;
62010;SDS011;47967;51.756;10.174;2023-04-26T11:30:03;3.83;;;1.65;;
62010;SDS011;47967;51.756;10.174;2023-04-26T11:34:06;3.53;;;1.70;;
62010;SDS011;47967;51.756;10.174;2023-04-26T11:38:10;3.67;;;1.83;;
62010;SDS011;47967;51.756;10.174;2023-04-26T11:42:13;4.95;;;1.83;;
62010;SDS011;47967;51.756;10.174;2023-04-26T11:46:15;8.30;;;2.00;;
62010;SDS011;47967;51.756;10.174;2023-04-26T11:50:22;4.57;;;2.00;;
62010;SDS011;47967;51.756;10.174;2023-04-26T11:54:28;4.72;;;2.00;;
62010;SDS011;47967;51.756;10.174;2023-04-26T11:58:31;5.28;;;2.00;;
62010;SDS011;47967;51.756;10.174;2023-04-26T12:02:34;5.50;;;2.10;;
62010;SDS011;47967;51.756;10.174;2023-04-26T12:06:40;4.47;;;1.60;;
62010;SDS011;47967;51.756;10.174;2023-04-26T12:10:45;4.57;;;1.80;;
62010;SDS011;47967;51.756;10.174;2023-04-26T12:14:48;7.53;;;1.98;;
62010;SDS011;47967;51.756;10.174;2023-04-26T12:18:50;4.72;;;1.70;;
62010;SDS011;47967;51.756;10.174;2023-04-26T12:22:57;3.00;;;1.67;;
62010;SDS011;47967;51.756;10.174;2023-04-26T12:27:05;5.10;;;1.85;;
62010;SDS011;47967;51.756;10.174;2023-04-26T12:31:08;5.55;;;2.20;;
62010;SDS011;47967;51.756;10.174;2023-04-26T12:35:11;3.88;;;1.60;;
62010;SDS011;47967;51.756;10.174;2023-04-26T12:39:14;5.27;;;2.10;;
62010;SDS011;47967;51.756;10.174;2023-04-26T12:43:18;7.50;;;1.90;;
62010;SDS011;47967;51.756;10.174;2023-04-26T12:47:24;4.80;;;2.00;;
62010;SDS011;47967;51.756;10.174;2023-04-26T12:51:27;3.70;;;1.90;;
62010;SDS011;47967;51.756;10.174;2023-04-26T12:55:29;6.30;;;2.50;;
62010;SDS011;47967;51.756;10.174;2023-04-26T12:59:35;5.95;;;2.10;;
62010;SDS011;47967;51.756;10.174;2023-04-26T13:03:37;5.25;;;2.60;;
62010;SDS011;47967;51.756;10.174;2023-04-26T13:07:41;7.18;;;2.30;;
62010;SDS011;47967;51.756;10.174;2023-04-26T13:11:44;4.50;;;2.00;;
62010;SDS011;47967;51.756;10.174;2023-04-26T13:15:48;5.57;;;2.20;;
62010;SDS011;47967;51.756;10.174;2023-04-26T13:19:51;3.72;;;1.98;;
62010;SDS011;47967;51.756;10.174;2023-04-26T13:23:54;4.72;;;2.08;;
62010;SDS011;47967;51.756;10.174;2023-04-26T13:27:56;7.33;;;2.40;;
62010;SDS011;47967;51.756;10.174;2023-04-26T13:32:00;5.40;;;2.20;;
62010;SDS011;47967;51.756;10.174;2023-04-26T13:36:04;3.03;;;2.03;;
62010;SDS011;47967;51.756;10.174;2023-04-26T13:44:11;5.28;;;2.40;;
62010;SDS011;47967;51.756;10.174;2023-04-26T13:48:15;6.75;;;2.33;;
62010;SDS011;47967;51.756;10.174;2023-04-26T13:52:18;4.57;;;2.30;;
62010;SDS011;47967;51.756;10.174;2023-04-26T13:56:21;4.22;;;2.33;;
62010;SDS011;47967;51.756;10.174;2023-04-26T14:00:26;6.20;;;2.78;;
62010;SDS011;47967;51.756;10.174;2023-04-26T14:04:30;4.83;;;1.90;;
62010;SDS011;47967;51.756;10.174;2023-04-26T14:08:33;7.18;;;2.55;;
62010;SDS011;47967;51.756;10.174;2023-04-26T14:12:36;5.73;;;2.37;;
62010;SDS011;47967;51.756;10.174;2023-04-26T14:16:38;5.47;;;2.87;;
62010;SDS011;47967;51.756;10.174;2023-04-26T14:20:42;6.35;;;2.25;;
62010;SDS011;47967;51.756;10.174;2023-04-26T14:24:45;6.25;;;2.53;;
62010;SDS011;47967;51.756;10.174;2023-04-26T14:28:47;5.03;;;2.50;;
62010;SDS011;47967;51.756;10.174;2023-04-26T14:32:50;3.55;;;2.22;;
62010;SDS011;47967;51.756;10.174;2023-04-26T14:36:54;5.07;;;2.10;;
62010;SDS011;47967;51.756;10.174;2023-04-26T14:41:01;4.68;;;1.92;;
62010;SDS011;47967;51.756;10.174;2023-04-26T14:45:04;5.93;;;2.13;;
62010;SDS011;47967;51.756;10.174;2023-04-26T14:49:07;3.63;;;2.10;;
62010;SDS011;47967;51.756;10.174;2023-04-26T14:53:11;4.17;;;2.43;;
62010;SDS011;47967;51.756;10.174;2023-04-26T14:57:14;3.85;;;2.25;;
62010;SDS011;47967;51.756;10.174;2023-04-26T15:01:16;7.20;;;2.65;;
62010;SDS011;47967;51.756;10.174;2023-04-26T15:05:19;4.13;;;2.50;;
62010;SDS011;47967;51.756;10.174;2023-04-26T15:09:25;5.45;;;2.22;;
62010;SDS011;47967;51.756;10.174;2023-04-26T15:13:30;6.43;;;2.53;;
62010;SDS011;47967;51.756;10.174;2023-04-26T15:17:33;3.13;;;2.37;;
62010;SDS011;47967;51.756;10.174;2023-04-26T15:21:36;4.47;;;2.50;;
62010;SDS011;47967;51.756;10.174;2023-04-26T15:25:39;6.80;;;2.60;;
62010;SDS011;47967;51.756;10.174;2023-04-26T15:29:42;4.78;;;2.50;;
62010;SDS011;47967;51.756;10.174;2023-04-26T15:33:45;4.33;;;2.73;;
62010;SDS011;47967;51.756;10.174;2023-04-26T15:37:48;4.80;;;2.63;;
62010;SDS011;47967;51.756;10.174;2023-04-26T15:41:55;5.20;;;2.60;;
62010;SDS011;47967;51.756;10.174;2023-04-26T15:45:58;3.95;;;2.42;;
62010;SDS011;47967;51.756;10.174;2023-04-26T15:50:00;4.40;;;2.60;;
62010;SDS011;47967;51.756;10.174;2023-04-26T15:54:04;5.43;;;2.85;;
62010;SDS011;47967;51.756;10.174;2023-04-26T15:58:09;7.03;;;2.65;;
62010;SDS011;47967;51.756;10.174;2023-04-26T16:02:12;7.22;;;2.53;;
62010;SDS011;47967;51.756;10.174;2023-04-26T16:06:15;5.47;;;2.67;;
62010;SDS011;47967;51.756;10.174;2023-04-26T16:10:17;6.43;;;2.73;;
62010;SDS011;47967;51.756;10.174;2023-04-26T16:14:21;4.20;;;2.83;;
62010;SDS011;47967;51.756;10.174;2023-04-26T16:18:24;4.40;;;2.22;;
62010;SDS011;47967;51.756;10.174;2023-04-26T16:22:26;5.43;;;2.23;;
62010;SDS011;47967;51.756;10.174;2023-04-26T16:26:29;4.53;;;2.17;;
62010;SDS011;47967;51.756;10.174;2023-04-26T16:30:33;3.73;;;2.80;;
62010;SDS011;47967;51.756;10.174;2023-04-26T16:34:35;4.45;;;2.70;;
62010;SDS011;47967;51.756;10.174;2023-04-26T16:38:38;7.25;;;2.30;;
62010;SDS011;47967;51.756;10.174;2023-04-26T16:42:41;6.63;;;2.67;;
62010;SDS011;47967;51.756;10.174;2023-04-26T16:46:45;3.78;;;2.00;;
62010;SDS011;47967;51.756;10.174;2023-04-26T16:50:48;4.22;;;2.00;;
62010;SDS011;47967;51.756;10.174;2023-04-26T16:54:51;4.75;;;2.60;;
62010;SDS011;47967;51.756;10.174;2023-04-26T16:58:54;5.70;;;2.20;;
62010;SDS011;47967;51.756;10.174;2023-04-26T17:02:57;4.60;;;2.30;;
62010;SDS011;47967;51.756;10.174;2023-04-26T17:07:00;8.90;;;2.67;;
62010;SDS011;47967;51.756;10.174;2023-04-26T17:11:03;2.63;;;2.20;;
62010;SDS011;47967;51.756;10.174;2023-04-26T17:15:06;5.00;;;2.38;;
62010;SDS011;47967;51.756;10.174;2023-04-26T17:19:11;5.38;;;2.40;;
62010;SDS011;47967;51.756;10.174;2023-04-26T17:23:13;5.97;;;2.33;;
62010;SDS011;47967;51.756;10.174;2023-04-26T17:27:16;5.05;;;2.53;;
62010;SDS011;47967;51.756;10.174;2023-04-26T17:31:19;4.07;;;2.20;;
62010;SDS011;47967;51.756;10.174;2023-04-26T17:35:23;6.03;;;2.20;;
62010;SDS011;47967;51.756;10.174;2023-04-26T17:39:26;7.43;;;2.75;;
62010;SDS011;47967;51.756;10.174;2023-04-26T17:43:28;4.03;;;2.60;;
62010;SDS011;47967;51.756;10.174;2023-04-26T17:47:31;6.37;;;2.40;;
62010;SDS011;47967;51.756;10.174;2023-04-26T17:51:35;5.27;;;2.30;;
62010;SDS011;47967;51.756;10.174;2023-04-26T17:55:38;3.38;;;2.05;;
62010;SDS011;47967;51.756;10.174;2023-04-26T17:59:40;6.32;;;2.40;;
62010;SDS011;47967;51.756;10.174;2023-04-26T18:03:43;8.73;;;2.60;;
62010;SDS011;47967;51.756;10.174;2023-04-26T18:07:47;8.07;;;2.75;;
62010;SDS011;47967;51.756;10.174;2023-04-26T18:11:50;5.70;;;2.20;;
62010;SDS011;47967;51.756;10.174;2023-04-26T18:15:53;3.83;;;2.28;;
62010;SDS011;47967;51.756;10.174;2023-04-26T18:19:56;4.68;;;2.17;;
62010;SDS011;47967;51.756;10.174;2023-04-26T18:23:59;4.50;;;2.17;;
62010;SDS011;47967;51.756;10.174;2023-04-26T18:28:02;5.47;;;2.63;;
62010;SDS011;47967;51.756;10.174;2023-04-26T18:32:05;6.00;;;3.40;;
62010;SDS011;47967;51.756;10.174;2023-04-26T18:36:08;3.73;;;2.50;;
62010;SDS011;47967;51.756;10.174;2023-04-26T18:40:12;7.63;;;2.20;;
62010;SDS011;47967;51.756;10.174;2023-04-26T18:44:15;5.25;;;2.22;;
62010;SDS011;47967;51.756;10.174;2023-04-26T18:48:17;5.20;;;2.67;;
62010;SDS011;47967;51.756;10.174;2023-04-26T18:52:20;3.90;;;2.37;;
62010;SDS011;47967;51.756;10.174;2023-04-26T18:56:23;9.38;;;2.75;;
62010;SDS011;47967;51.756;10.174;2023-04-26T19:00:26;5.53;;;2.42;;
62010;SDS011;47967;51.756;10.174;2023-04-26T19:04:29;5.45;;;2.60;;
62010;SDS011;47967;51.756;10.174;2023-04-26T19:08:31;5.32;;;2.70;;
62010;SDS011;47967;51.756;10.174;2023-04-26T19:12:35;5.00;;;2.73;;
62010;SDS011;47967;51.756;10.174;2023-04-26T19:16:38;5.43;;;2.50;;
62010;SDS011;47967;51.756;10.174;2023-04-26T19:20:40;2.38;;;2.08;;
62010;SDS011;47967;51.756;10.174;2023-04-26T19:24:43;3.93;;;2.23;;
62010;SDS011;47967;51.756;10.174;2023-04-26T19:28:51;6.75;;;2.38;;
62010;SDS011;47967;51.756;10.174;2023-04-26T19:32:55;4.47;;;2.03;;
62010;SDS011;47967;51.756;10.174;2023-04-26T19:36:58;3.17;;;2.20;;
62010;SDS011;47967;51.756;10.174;2023-04-26T19:41:00;3.60;;;2.00;;
62010;SDS011;47967;51.756;10.174;2023-04-26T19:45:05;5.60;;;2.60;;
62010;SDS011;47967;51.756;10.174;2023-04-26T19:49:08;4.60;;;2.28;;
62010;SDS011;47967;51.756;10.174;2023-04-26T19:53:11;5.57;;;2.47;;
62010;SDS011;47967;51.756;10.174;2023-04-26T19:57:15;5.00;;;2.58;;
62010;SDS011;47967;51.756;10.174;2023-04-26T20:01:19;4.57;;;2.60;;
62010;SDS011;47967;51.756;10.174;2023-04-26T20:05:21;5.80;;;2.67;;
62010;SDS011;47967;51.756;10.174;2023-04-26T20:09:24;3.53;;;2.60;;
62010;SDS011;47967;51.756;10.174;2023-04-26T20:13:27;8.15;;;2.47;;
62010;SDS011;47967;51.756;10.174;2023-04-26T20:17:30;7.20;;;2.80;;
62010;SDS011;47967;51.756;10.174;2023-04-26T20:21:33;5.00;;;2.45;;
62010;SDS011;47967;51.756;10.174;2023-04-26T20:25:36;4.53;;;2.40;;
62010;SDS011;47967;51.756;10.174;2023-04-26T20:29:38;4.22;;;2.25;;
62010;SDS011;47967;51.756;10.174;2023-04-26T20:33:42;3.40;;;2.00;;
62010;SDS011;47967;51.756;10.174;2023-04-26T20:37:45;5.63;;;2.45;;
62010;SDS011;47967;51.756;10.174;2023-04-26T20:41:47;7.57;;;2.30;;
62010;SDS011;47967;51.756;10.174;2023-04-26T20:45:50;4.82;;;2.75;;
62010;SDS011;47967;51.756;10.174;2023-04-26T20:49:54;4.23;;;2.30;;
62010;SDS011;47967;51.756;10.174;2023-04-26T20:53:56;5.75;;;2.85;;
62010;SDS011;47967;51.756;10.174;2023-04-26T20:57:59;6.93;;;3.65;;
